sensor_id;sensor_type;location;lat;lon;timestamp;P1;durP1;ratioP1;P2;durP2;ratioP2
50555;SDS011;36508;52.512;13.450;2023-08-07T00:02:10;3.37;;;3.07;;
50555;SDS011;36508;52.512;13.450;2023-08-07T00:04:36;5.10;;;3.40;;
50555;SDS011;36508;52.512;13.450;2023-08-07T00:07:01;3.90;;;3.70;;
50555;SDS011;36508;52.512;13.450;2023-08-07T00:09:27;3.90;;;3.70;;
50555;SDS011;36508;52.512;13.450;2023-08-07T00:11:53;5.70;;;3.43;;
50555;SDS011;36508;52.512;13.450;2023-08-07T00:14:18;4.10;;;3.80;;
50555;SDS011;36508;52.512;13.450;2023-08-07T00:16:44;3.37;;;3.17;;
50555;SDS011;36508;52.512;13.450;2023-08-07T00:19:10;5.60;;;4.37;;
50555;SDS011;36508;52.512;13.450;2023-08-07T00:21:36;3.03;;;2.93;;
50555;SDS011;36508;52.512;13.450;2023-08-07T00:24:03;5.13;;;4.53;;
50555;SDS011;36508;52.512;13.450;2023-08-07T00:26:28;6.20;;;3.57;;
50555;SDS011;36508;52.512;13.450;2023-08-07T00:28:55;4.70;;;3.07;;
50555;SDS011;36508;52.512;13.450;2023-08-07T00:31:21;4.37;;;3.70;;
50555;SDS011;36508;52.512;13.450;2023-08-07T00:33:46;4.80;;;3.13;;
50555;SDS011;36508;52.512;13.450;2023-08-07T00:36:16;5.80;;;3.70;;
50555;SDS011;36508;52.512;13.450;2023-08-07T00:38:42;3.80;;;3.50;;
50555;SDS011;36508;52.512;13.450;2023-08-07T00:41:07;4.20;;;3.90;;
50555;SDS011;36508;52.512;13.450;2023-08-07T00:43:34;6.93;;;4.30;;
50555;SDS011;36508;52.512;13.450;2023-08-07T00:46:00;4.40;;;4.10;;
50555;SDS011;36508;52.512;13.450;2023-08-07T00:48:27;4.80;;;3.90;;
50555;SDS011;36508;52.512;13.450;2023-08-07T00:50:53;3.93;;;3.67;;
50555;SDS011;36508;52.512;13.450;2023-08-07T00:53:19;5.33;;;3.87;;
50555;SDS011;36508;52.512;13.450;2023-08-07T00:55:45;4.13;;;3.87;;
50555;SDS011;36508;52.512;13.450;2023-08-07T00:58:11;5.67;;;5.00;;
50555;SDS011;36508;52.512;13.450;2023-08-07T01:00:37;4.43;;;4.00;;
50555;SDS011;36508;52.512;13.450;2023-08-07T01:03:05;4.73;;;4.33;;
50555;SDS011;36508;52.512;13.450;2023-08-07T01:05:31;3.90;;;3.60;;
50555;SDS011;36508;52.512;13.450;2023-08-07T01:07:57;5.13;;;4.70;;
50555;SDS011;36508;52.512;13.450;2023-08-07T01:10:25;4.97;;;4.53;;
50555;SDS011;36508;52.512;13.450;2023-08-07T01:13:03;9.10;;;4.30;;
50555;SDS011;36508;52.512;13.450;2023-08-07T01:15:35;5.20;;;4.70;;
50555;SDS011;36508;52.512;13.450;2023-08-07T01:18:03;4.87;;;3.87;;
50555;SDS011;36508;52.512;13.450;2023-08-07T01:20:31;5.43;;;4.10;;
50555;SDS011;36508;52.512;13.450;2023-08-07T01:22:57;3.90;;;3.50;;
50555;SDS011;36508;52.512;13.450;2023-08-07T01:25:23;5.10;;;4.60;;
50555;SDS011;36508;52.512;13.450;2023-08-07T01:28:02;6.20;;;4.00;;
50555;SDS011;36508;52.512;13.450;2023-08-07T01:30:36;3.73;;;3.53;;
50555;SDS011;36508;52.512;13.450;2023-08-07T01:35:57;5.20;;;4.73;;
50555;SDS011;36508;52.512;13.450;2023-08-07T01:38:25;6.67;;;6.10;;
50555;SDS011;36508;52.512;13.450;2023-08-07T01:40:53;6.80;;;6.10;;
50555;SDS011;36508;52.512;13.450;2023-08-07T01:43:19;7.27;;;6.27;;
50555;SDS011;36508;52.512;13.450;2023-08-07T01:45:45;4.00;;;3.60;;
50555;SDS011;36508;52.512;13.450;2023-08-07T01:48:11;5.20;;;4.80;;
50555;SDS011;36508;52.512;13.450;2023-08-07T01:50:37;4.77;;;4.27;;
50555;SDS011;36508;52.512;13.450;2023-08-07T01:53:03;4.93;;;4.47;;
50555;SDS011;36508;52.512;13.450;2023-08-07T01:55:29;5.70;;;4.77;;
50555;SDS011;36508;52.512;13.450;2023-08-07T01:57:54;5.97;;;3.90;;
50555;SDS011;36508;52.512;13.450;2023-08-07T02:00:20;7.53;;;4.50;;
50555;SDS011;36508;52.512;13.450;2023-08-07T02:02:46;6.17;;;5.67;;
50555;SDS011;36508;52.512;13.450;2023-08-07T02:05:12;7.00;;;4.20;;
50555;SDS011;36508;52.512;13.450;2023-08-07T02:07:38;4.93;;;4.63;;
50555;SDS011;36508;52.512;13.450;2023-08-07T02:10:04;5.23;;;4.83;;
50555;SDS011;36508;52.512;13.450;2023-08-07T02:12:30;5.03;;;4.57;;
50555;SDS011;36508;52.512;13.450;2023-08-07T02:14:57;6.57;;;5.97;;
50555;SDS011;36508;52.512;13.450;2023-08-07T02:17:24;6.27;;;3.90;;
50555;SDS011;36508;52.512;13.450;2023-08-07T02:19:50;5.37;;;4.97;;
50555;SDS011;36508;52.512;13.450;2023-08-07T02:22:15;5.70;;;5.20;;
50555;SDS011;36508;52.512;13.450;2023-08-07T02:24:41;5.90;;;5.50;;
50555;SDS011;36508;52.512;13.450;2023-08-07T02:27:07;7.73;;;6.60;;
50555;SDS011;36508;52.512;13.450;2023-08-07T02:29:32;7.60;;;6.90;;
50555;SDS011;36508;52.512;13.450;2023-08-07T02:31:59;7.43;;;6.20;;
50555;SDS011;36508;52.512;13.450;2023-08-07T02:34:27;8.27;;;7.50;;
50555;SDS011;36508;52.512;13.450;2023-08-07T02:36:53;7.57;;;6.60;;
50555;SDS011;36508;52.512;13.450;2023-08-07T02:39:19;8.83;;;6.63;;
50555;SDS011;36508;52.512;13.450;2023-08-07T02:41:44;9.50;;;7.90;;
50555;SDS011;36508;52.512;13.450;2023-08-07T02:44:10;13.60;;;9.40;;
50555;SDS011;36508;52.512;13.450;2023-08-07T02:46:36;7.37;;;6.67;;
50555;SDS011;36508;52.512;13.450;2023-08-07T02:49:01;9.50;;;6.57;;
50555;SDS011;36508;52.512;13.450;2023-08-07T02:51:27;8.07;;;7.30;;
50555;SDS011;36508;52.512;13.450;2023-08-07T02:53:53;5.77;;;5.30;;
50555;SDS011;36508;52.512;13.450;2023-08-07T02:56:18;10.50;;;8.83;;
50555;SDS011;36508;52.512;13.450;2023-08-07T02:58:44;10.93;;;8.60;;
50555;SDS011;36508;52.512;13.450;2023-08-07T03:01:09;8.00;;;7.23;;
50555;SDS011;36508;52.512;13.450;2023-08-07T03:06:09;6.70;;;6.10;;
50555;SDS011;36508;52.512;13.450;2023-08-07T03:08:35;9.40;;;8.70;;
50555;SDS011;36508;52.512;13.450;2023-08-07T03:11:01;9.43;;;8.53;;
50555;SDS011;36508;52.512;13.450;2023-08-07T03:13:26;9.57;;;8.77;;
50555;SDS011;36508;52.512;13.450;2023-08-07T03:16:02;11.90;;;8.53;;
50555;SDS011;36508;52.512;13.450;2023-08-07T03:18:29;17.33;;;10.13;;
50555;SDS011;36508;52.512;13.450;2023-08-07T03:20:55;9.90;;;8.90;;
50555;SDS011;36508;52.512;13.450;2023-08-07T03:23:21;8.33;;;7.53;;
50555;SDS011;36508;52.512;13.450;2023-08-07T03:25:47;9.03;;;6.63;;
50555;SDS011;36508;52.512;13.450;2023-08-07T03:28:13;10.73;;;8.10;;
50555;SDS011;36508;52.512;13.450;2023-08-07T03:30:38;8.63;;;7.93;;
50555;SDS011;36508;52.512;13.450;2023-08-07T03:33:04;13.53;;;9.73;;
50555;SDS011;36508;52.512;13.450;2023-08-07T03:35:30;10.83;;;9.80;;
50555;SDS011;36508;52.512;13.450;2023-08-07T03:37:55;8.13;;;7.40;;
50555;SDS011;36508;52.512;13.450;2023-08-07T03:40:21;10.77;;;8.03;;
50555;SDS011;36508;52.512;13.450;2023-08-07T03:42:46;10.17;;;9.00;;
50555;SDS011;36508;52.512;13.450;2023-08-07T03:45:12;10.07;;;9.00;;
50555;SDS011;36508;52.512;13.450;2023-08-07T03:47:38;8.63;;;7.10;;
50555;SDS011;36508;52.512;13.450;2023-08-07T03:50:04;15.13;;;8.37;;
50555;SDS011;36508;52.512;13.450;2023-08-07T03:52:30;9.90;;;7.50;;
50555;SDS011;36508;52.512;13.450;2023-08-07T03:54:55;10.67;;;9.53;;
50555;SDS011;36508;52.512;13.450;2023-08-07T03:57:21;8.23;;;7.40;;
50555;SDS011;36508;52.512;13.450;2023-08-07T03:59:46;12.10;;;10.90;;
50555;SDS011;36508;52.512;13.450;2023-08-07T04:02:12;13.83;;;10.23;;
50555;SDS011;36508;52.512;13.450;2023-08-07T04:04:37;17.53;;;9.80;;
50555;SDS011;36508;52.512;13.450;2023-08-07T04:07:03;9.90;;;8.30;;
50555;SDS011;36508;52.512;13.450;2023-08-07T04:09:29;11.20;;;8.27;;
50555;SDS011;36508;52.512;13.450;2023-08-07T04:11:54;6.77;;;6.10;;
50555;SDS011;36508;52.512;13.450;2023-08-07T04:14:20;7.87;;;7.20;;
50555;SDS011;36508;52.512;13.450;2023-08-07T04:16:45;10.57;;;9.67;;
50555;SDS011;36508;52.512;13.450;2023-08-07T04:19:11;9.00;;;8.13;;
50555;SDS011;36508;52.512;13.450;2023-08-07T04:21:36;7.63;;;6.97;;
50555;SDS011;36508;52.512;13.450;2023-08-07T04:24:02;9.13;;;6.40;;
50555;SDS011;36508;52.512;13.450;2023-08-07T04:26:35;7.90;;;6.70;;
50555;SDS011;36508;52.512;13.450;2023-08-07T04:29:01;9.37;;;7.60;;
50555;SDS011;36508;52.512;13.450;2023-08-07T04:31:26;10.53;;;7.73;;
50555;SDS011;36508;52.512;13.450;2023-08-07T04:33:52;7.17;;;6.57;;
50555;SDS011;36508;52.512;13.450;2023-08-07T04:36:17;8.53;;;7.07;;
50555;SDS011;36508;52.512;13.450;2023-08-07T04:38:43;7.63;;;6.90;;
50555;SDS011;36508;52.512;13.450;2023-08-07T04:41:09;7.93;;;6.80;;
50555;SDS011;36508;52.512;13.450;2023-08-07T04:43:34;7.17;;;6.57;;
50555;SDS011;36508;52.512;13.450;2023-08-07T04:46:00;8.33;;;6.40;;
50555;SDS011;36508;52.512;13.450;2023-08-07T04:48:25;7.77;;;5.93;;
50555;SDS011;36508;52.512;13.450;2023-08-07T04:50:51;8.27;;;7.53;;
50555;SDS011;36508;52.512;13.450;2023-08-07T04:53:17;6.77;;;6.03;;
50555;SDS011;36508;52.512;13.450;2023-08-07T04:55:42;7.77;;;7.27;;
50555;SDS011;36508;52.512;13.450;2023-08-07T04:58:08;6.73;;;6.17;;
50555;SDS011;36508;52.512;13.450;2023-08-07T05:00:33;10.23;;;5.47;;
50555;SDS011;36508;52.512;13.450;2023-08-07T05:02:59;6.20;;;5.70;;
50555;SDS011;36508;52.512;13.450;2023-08-07T05:05:26;7.77;;;6.17;;
50555;SDS011;36508;52.512;13.450;2023-08-07T05:07:54;6.97;;;6.30;;
50555;SDS011;36508;52.512;13.450;2023-08-07T05:10:20;6.93;;;6.43;;
50555;SDS011;36508;52.512;13.450;2023-08-07T05:12:45;6.00;;;5.40;;
50555;SDS011;36508;52.512;13.450;2023-08-07T05:15:11;7.83;;;6.10;;
50555;SDS011;36508;52.512;13.450;2023-08-07T05:17:36;7.27;;;6.30;;
50555;SDS011;36508;52.512;13.450;2023-08-07T05:20:02;7.27;;;6.57;;
50555;SDS011;36508;52.512;13.450;2023-08-07T05:22:29;7.37;;;6.07;;
50555;SDS011;36508;52.512;13.450;2023-08-07T05:24:55;4.97;;;4.67;;
50555;SDS011;36508;52.512;13.450;2023-08-07T05:27:20;7.00;;;5.90;;
50555;SDS011;36508;52.512;13.450;2023-08-07T05:29:46;6.33;;;5.83;;
50555;SDS011;36508;52.512;13.450;2023-08-07T05:32:12;7.73;;;6.83;;
50555;SDS011;36508;52.512;13.450;2023-08-07T05:34:39;11.57;;;6.40;;
50555;SDS011;36508;52.512;13.450;2023-08-07T05:37:05;7.80;;;6.97;;
50555;SDS011;36508;52.512;13.450;2023-08-07T05:39:31;7.87;;;7.03;;
50555;SDS011;36508;52.512;13.450;2023-08-07T05:41:57;6.83;;;6.17;;
50555;SDS011;36508;52.512;13.450;2023-08-07T05:44:25;4.10;;;3.80;;
50555;SDS011;36508;52.512;13.450;2023-08-07T05:46:51;5.13;;;4.43;;
50555;SDS011;36508;52.512;13.450;2023-08-07T05:49:17;5.53;;;5.13;;
50555;SDS011;36508;52.512;13.450;2023-08-07T05:51:43;6.33;;;5.67;;
50555;SDS011;36508;52.512;13.450;2023-08-07T05:54:08;6.33;;;4.80;;
50555;SDS011;36508;52.512;13.450;2023-08-07T05:56:34;4.00;;;3.70;;
50555;SDS011;36508;52.512;13.450;2023-08-07T05:59:00;7.53;;;5.07;;
50555;SDS011;36508;52.512;13.450;2023-08-07T06:01:26;5.30;;;4.97;;
50555;SDS011;36508;52.512;13.450;2023-08-07T06:03:55;9.20;;;6.00;;
50555;SDS011;36508;52.512;13.450;2023-08-07T06:06:21;7.33;;;5.73;;
50555;SDS011;36508;52.512;13.450;2023-08-07T06:08:48;8.10;;;4.90;;
50555;SDS011;36508;52.512;13.450;2023-08-07T06:11:13;6.73;;;6.17;;
50555;SDS011;36508;52.512;13.450;2023-08-07T06:13:40;6.93;;;6.23;;
50555;SDS011;36508;52.512;13.450;2023-08-07T06:16:06;6.50;;;5.90;;
50555;SDS011;36508;52.512;13.450;2023-08-07T06:18:31;5.50;;;5.10;;
50555;SDS011;36508;52.512;13.450;2023-08-07T06:20:57;8.43;;;5.40;;
50555;SDS011;36508;52.512;13.450;2023-08-07T06:23:22;3.77;;;3.50;;
50555;SDS011;36508;52.512;13.450;2023-08-07T06:25:48;7.53;;;4.90;;
50555;SDS011;36508;52.512;13.450;2023-08-07T06:28:14;10.00;;;5.20;;
50555;SDS011;36508;52.512;13.450;2023-08-07T06:30:39;5.30;;;4.80;;
50555;SDS011;36508;52.512;13.450;2023-08-07T06:33:06;4.37;;;4.07;;
50555;SDS011;36508;52.512;13.450;2023-08-07T06:35:37;4.40;;;4.00;;
50555;SDS011;36508;52.512;13.450;2023-08-07T06:38:03;3.47;;;3.20;;
50555;SDS011;36508;52.512;13.450;2023-08-07T06:40:32;5.30;;;3.20;;
50555;SDS011;36508;52.512;13.450;2023-08-07T06:43:00;3.10;;;3.00;;
50555;SDS011;36508;52.512;13.450;2023-08-07T06:45:25;3.87;;;3.67;;
50555;SDS011;36508;52.512;13.450;2023-08-07T06:47:51;4.70;;;2.97;;
50555;SDS011;36508;52.512;13.450;2023-08-07T06:50:17;3.30;;;3.00;;
50555;SDS011;36508;52.512;13.450;2023-08-07T06:52:42;6.63;;;3.03;;
50555;SDS011;36508;52.512;13.450;2023-08-07T06:55:08;4.20;;;3.43;;
50555;SDS011;36508;52.512;13.450;2023-08-07T06:57:34;3.10;;;2.80;;
50555;SDS011;36508;52.512;13.450;2023-08-07T07:00:00;4.23;;;2.77;;
50555;SDS011;36508;52.512;13.450;2023-08-07T07:02:25;3.50;;;3.20;;
50555;SDS011;36508;52.512;13.450;2023-08-07T07:04:51;3.43;;;3.13;;
50555;SDS011;36508;52.512;13.450;2023-08-07T07:07:17;4.50;;;3.60;;
50555;SDS011;36508;52.512;13.450;2023-08-07T07:09:42;3.33;;;3.13;;
50555;SDS011;36508;52.512;13.450;2023-08-07T07:12:08;5.30;;;3.40;;
50555;SDS011;36508;52.512;13.450;2023-08-07T07:14:34;2.70;;;2.50;;
50555;SDS011;36508;52.512;13.450;2023-08-07T07:17:00;7.70;;;3.13;;
50555;SDS011;36508;52.512;13.450;2023-08-07T07:19:25;4.30;;;2.60;;
50555;SDS011;36508;52.512;13.450;2023-08-07T07:21:51;2.43;;;2.33;;
50555;SDS011;36508;52.512;13.450;2023-08-07T07:24:17;2.83;;;2.63;;
50555;SDS011;36508;52.512;13.450;2023-08-07T07:26:42;2.97;;;2.70;;
50555;SDS011;36508;52.512;13.450;2023-08-07T07:29:08;4.10;;;2.77;;
50555;SDS011;36508;52.512;13.450;2023-08-07T07:31:34;2.80;;;2.67;;
50555;SDS011;36508;52.512;13.450;2023-08-07T07:33:59;7.90;;;2.73;;
50555;SDS011;36508;52.512;13.450;2023-08-07T07:36:25;3.80;;;3.20;;
50555;SDS011;36508;52.512;13.450;2023-08-07T07:38:51;2.70;;;2.60;;
50555;SDS011;36508;52.512;13.450;2023-08-07T07:41:16;2.80;;;2.67;;
50555;SDS011;36508;52.512;13.450;2023-08-07T07:43:42;2.63;;;2.40;;
50555;SDS011;36508;52.512;13.450;2023-08-07T07:46:08;2.03;;;1.90;;
50555;SDS011;36508;52.512;13.450;2023-08-07T07:51:06;2.30;;;2.10;;
50555;SDS011;36508;52.512;13.450;2023-08-07T07:53:31;5.00;;;4.47;;
50555;SDS011;36508;52.512;13.450;2023-08-07T07:55:57;2.30;;;2.20;;
50555;SDS011;36508;52.512;13.450;2023-08-07T07:58:23;5.03;;;2.87;;
50555;SDS011;36508;52.512;13.450;2023-08-07T08:00:48;2.40;;;2.10;;
50555;SDS011;36508;52.512;13.450;2023-08-07T08:03:14;2.00;;;1.90;;
50555;SDS011;36508;52.512;13.450;2023-08-07T08:05:40;3.30;;;3.00;;
50555;SDS011;36508;52.512;13.450;2023-08-07T08:08:06;4.07;;;3.03;;
50555;SDS011;36508;52.512;13.450;2023-08-07T08:10:34;2.80;;;2.60;;
50555;SDS011;36508;52.512;13.450;2023-08-07T08:13:00;2.93;;;2.80;;
50555;SDS011;36508;52.512;13.450;2023-08-07T08:15:28;4.40;;;3.43;;
50555;SDS011;36508;52.512;13.450;2023-08-07T08:17:54;3.53;;;3.30;;
50555;SDS011;36508;52.512;13.450;2023-08-07T08:20:20;3.10;;;2.90;;
50555;SDS011;36508;52.512;13.450;2023-08-07T08:22:46;2.47;;;2.37;;
50555;SDS011;36508;52.512;13.450;2023-08-07T08:25:12;5.40;;;4.90;;
50555;SDS011;36508;52.512;13.450;2023-08-07T08:27:38;2.77;;;2.20;;
50555;SDS011;36508;52.512;13.450;2023-08-07T08:30:04;2.37;;;2.27;;
50555;SDS011;36508;52.512;13.450;2023-08-07T08:32:30;2.23;;;2.13;;
50555;SDS011;36508;52.512;13.450;2023-08-07T08:34:56;3.93;;;2.73;;
50555;SDS011;36508;52.512;13.450;2023-08-07T08:37:21;2.50;;;2.33;;
50555;SDS011;36508;52.512;13.450;2023-08-07T08:39:47;5.60;;;3.17;;
50555;SDS011;36508;52.512;13.450;2023-08-07T08:42:13;3.30;;;3.10;;
50555;SDS011;36508;52.512;13.450;2023-08-07T08:44:40;3.33;;;2.60;;
50555;SDS011;36508;52.512;13.450;2023-08-07T08:47:20;4.47;;;3.60;;
50555;SDS011;36508;52.512;13.450;2023-08-07T08:49:47;3.90;;;2.97;;
50555;SDS011;36508;52.512;13.450;2023-08-07T08:52:15;3.03;;;2.83;;
50555;SDS011;36508;52.512;13.450;2023-08-07T08:54:42;3.33;;;3.10;;
50555;SDS011;36508;52.512;13.450;2023-08-07T08:57:09;2.37;;;2.17;;
50555;SDS011;36508;52.512;13.450;2023-08-07T08:59:36;3.77;;;2.77;;
50555;SDS011;36508;52.512;13.450;2023-08-07T09:02:02;3.40;;;3.20;;
50555;SDS011;36508;52.512;13.450;2023-08-07T09:04:29;2.67;;;2.47;;
50555;SDS011;36508;52.512;13.450;2023-08-07T09:06:54;4.53;;;2.60;;
50555;SDS011;36508;52.512;13.450;2023-08-07T09:09:20;2.63;;;2.43;;
50555;SDS011;36508;52.512;13.450;2023-08-07T09:11:47;6.53;;;2.40;;
50555;SDS011;36508;52.512;13.450;2023-08-07T09:14:17;2.77;;;2.57;;
50555;SDS011;36508;52.512;13.450;2023-08-07T09:16:49;2.30;;;2.20;;
50555;SDS011;36508;52.512;13.450;2023-08-07T09:19:15;4.53;;;2.80;;
50555;SDS011;36508;52.512;13.450;2023-08-07T09:21:40;3.13;;;2.70;;
50555;SDS011;36508;52.512;13.450;2023-08-07T09:24:06;3.00;;;2.90;;
50555;SDS011;36508;52.512;13.450;2023-08-07T09:26:32;3.07;;;2.87;;
50555;SDS011;36508;52.512;13.450;2023-08-07T09:29:01;4.00;;;3.60;;
50555;SDS011;36508;52.512;13.450;2023-08-07T09:31:28;4.40;;;4.10;;
50555;SDS011;36508;52.512;13.450;2023-08-07T09:33:57;13.83;;;3.83;;
50555;SDS011;36508;52.512;13.450;2023-08-07T09:36:33;3.07;;;2.30;;
50555;SDS011;36508;52.512;13.450;2023-08-07T09:39:02;3.37;;;2.63;;
50555;SDS011;36508;52.512;13.450;2023-08-07T09:41:28;3.60;;;3.40;;
50555;SDS011;36508;52.512;13.450;2023-08-07T09:43:57;2.47;;;2.27;;
50555;SDS011;36508;52.512;13.450;2023-08-07T09:46:25;2.40;;;2.20;;
50555;SDS011;36508;52.512;13.450;2023-08-07T09:48:51;2.50;;;2.30;;
50555;SDS011;36508;52.512;13.450;2023-08-07T09:51:17;2.87;;;2.67;;
50555;SDS011;36508;52.512;13.450;2023-08-07T09:53:43;3.20;;;2.97;;
50555;SDS011;36508;52.512;13.450;2023-08-07T09:56:08;2.63;;;2.43;;
50555;SDS011;36508;52.512;13.450;2023-08-07T09:58:34;2.53;;;2.43;;
50555;SDS011;36508;52.512;13.450;2023-08-07T10:01:00;2.87;;;2.23;;
50555;SDS011;36508;52.512;13.450;2023-08-07T10:03:28;2.63;;;1.97;;
50555;SDS011;36508;52.512;13.450;2023-08-07T10:05:54;2.23;;;2.10;;
50555;SDS011;36508;52.512;13.450;2023-08-07T10:08:19;5.90;;;2.17;;
50555;SDS011;36508;52.512;13.450;2023-08-07T10:10:46;2.73;;;2.53;;
50555;SDS011;36508;52.512;13.450;2023-08-07T10:13:12;1.87;;;1.77;;
50555;SDS011;36508;52.512;13.450;2023-08-07T10:15:39;2.57;;;2.10;;
50555;SDS011;36508;52.512;13.450;2023-08-07T10:18:07;1.50;;;1.40;;
50555;SDS011;36508;52.512;13.450;2023-08-07T10:20:33;3.70;;;2.13;;
50555;SDS011;36508;52.512;13.450;2023-08-07T10:23:09;3.60;;;2.00;;
50555;SDS011;36508;52.512;13.450;2023-08-07T10:25:42;2.73;;;1.93;;
50555;SDS011;36508;52.512;13.450;2023-08-07T10:28:12;3.63;;;2.80;;
50555;SDS011;36508;52.512;13.450;2023-08-07T10:30:41;2.10;;;1.67;;
50555;SDS011;36508;52.512;13.450;2023-08-07T10:33:07;1.80;;;1.70;;
50555;SDS011;36508;52.512;13.450;2023-08-07T10:35:35;2.90;;;1.73;;
50555;SDS011;36508;52.512;13.450;2023-08-07T10:40:34;5.07;;;2.07;;
50555;SDS011;36508;52.512;13.450;2023-08-07T10:43:18;1.47;;;1.23;;
50555;SDS011;36508;52.512;13.450;2023-08-07T10:45:44;2.07;;;1.70;;
50555;SDS011;36508;52.512;13.450;2023-08-07T10:48:10;2.67;;;2.40;;
50555;SDS011;36508;52.512;13.450;2023-08-07T10:50:50;2.07;;;1.97;;
50555;SDS011;36508;52.512;13.450;2023-08-07T10:53:32;2.30;;;2.20;;
50555;SDS011;36508;52.512;13.450;2023-08-07T10:55:58;1.90;;;1.80;;
50555;SDS011;36508;52.512;13.450;2023-08-07T10:58:33;2.63;;;2.00;;
50555;SDS011;36508;52.512;13.450;2023-08-07T11:03:59;2.10;;;1.73;;
50555;SDS011;36508;52.512;13.450;2023-08-07T11:06:35;2.40;;;1.43;;
50555;SDS011;36508;52.512;13.450;2023-08-07T11:09:02;2.93;;;2.37;;
50555;SDS011;36508;52.512;13.450;2023-08-07T11:11:39;1.40;;;1.30;;
50555;SDS011;36508;52.512;13.450;2023-08-07T11:14:09;6.00;;;1.67;;
50555;SDS011;36508;52.512;13.450;2023-08-07T11:16:36;10.20;;;3.43;;
50555;SDS011;36508;52.512;13.450;2023-08-07T11:19:02;2.63;;;2.43;;
50555;SDS011;36508;52.512;13.450;2023-08-07T11:21:28;3.07;;;2.67;;
50555;SDS011;36508;52.512;13.450;2023-08-07T11:23:56;3.17;;;2.57;;
50555;SDS011;36508;52.512;13.450;2023-08-07T11:26:21;2.47;;;1.70;;
50555;SDS011;36508;52.512;13.450;2023-08-07T11:28:48;3.70;;;3.03;;
50555;SDS011;36508;52.512;13.450;2023-08-07T11:31:14;5.00;;;2.70;;
50555;SDS011;36508;52.512;13.450;2023-08-07T11:33:40;4.83;;;2.60;;
50555;SDS011;36508;52.512;13.450;2023-08-07T11:36:14;3.37;;;2.70;;
50555;SDS011;36508;52.512;13.450;2023-08-07T11:38:41;3.77;;;3.53;;
50555;SDS011;36508;52.512;13.450;2023-08-07T11:41:14;4.73;;;3.83;;
50555;SDS011;36508;52.512;13.450;2023-08-07T11:43:41;6.50;;;3.23;;
50555;SDS011;36508;52.512;13.450;2023-08-07T11:46:07;3.30;;;2.90;;
50555;SDS011;36508;52.512;13.450;2023-08-07T11:48:35;3.10;;;2.87;;
50555;SDS011;36508;52.512;13.450;2023-08-07T11:51:02;2.80;;;1.90;;
50555;SDS011;36508;52.512;13.450;2023-08-07T11:53:29;6.50;;;3.10;;
50555;SDS011;36508;52.512;13.450;2023-08-07T11:56:00;3.07;;;2.77;;
50555;SDS011;36508;52.512;13.450;2023-08-07T11:58:28;3.23;;;3.03;;
50555;SDS011;36508;52.512;13.450;2023-08-07T12:01:03;2.63;;;2.33;;
50555;SDS011;36508;52.512;13.450;2023-08-07T12:03:35;3.00;;;2.80;;
50555;SDS011;36508;52.512;13.450;2023-08-07T12:06:04;2.77;;;2.47;;
50555;SDS011;36508;52.512;13.450;2023-08-07T12:08:40;2.47;;;2.27;;
50555;SDS011;36508;52.512;13.450;2023-08-07T12:11:07;7.67;;;2.30;;
50555;SDS011;36508;52.512;13.450;2023-08-07T12:13:36;6.47;;;4.60;;
50555;SDS011;36508;52.512;13.450;2023-08-07T12:16:06;2.30;;;2.03;;
50555;SDS011;36508;52.512;13.450;2023-08-07T12:18:33;3.60;;;2.70;;
50555;SDS011;36508;52.512;13.450;2023-08-07T12:21:00;2.20;;;2.10;;
50555;SDS011;36508;52.512;13.450;2023-08-07T12:23:28;3.30;;;3.00;;
50555;SDS011;36508;52.512;13.450;2023-08-07T12:25:54;4.63;;;3.23;;
50555;SDS011;36508;52.512;13.450;2023-08-07T12:28:19;3.87;;;3.43;;
50555;SDS011;36508;52.512;13.450;2023-08-07T12:30:45;5.33;;;3.57;;
50555;SDS011;36508;52.512;13.450;2023-08-07T12:33:12;5.10;;;3.40;;
50555;SDS011;36508;52.512;13.450;2023-08-07T12:35:39;5.03;;;4.53;;
50555;SDS011;36508;52.512;13.450;2023-08-07T12:38:05;5.40;;;3.17;;
50555;SDS011;36508;52.512;13.450;2023-08-07T12:40:31;2.67;;;2.40;;
50555;SDS011;36508;52.512;13.450;2023-08-07T12:42:57;3.10;;;2.93;;
50555;SDS011;36508;52.512;13.450;2023-08-07T12:45:24;5.57;;;2.60;;
50555;SDS011;36508;52.512;13.450;2023-08-07T12:47:49;2.47;;;2.27;;
50555;SDS011;36508;52.512;13.450;2023-08-07T12:50:15;3.10;;;2.33;;
50555;SDS011;36508;52.512;13.450;2023-08-07T12:52:41;4.63;;;3.60;;
50555;SDS011;36508;52.512;13.450;2023-08-07T12:55:07;3.03;;;2.73;;
50555;SDS011;36508;52.512;13.450;2023-08-07T12:57:33;7.17;;;2.90;;
50555;SDS011;36508;52.512;13.450;2023-08-07T12:59:58;3.60;;;3.10;;
50555;SDS011;36508;52.512;13.450;2023-08-07T13:02:24;4.70;;;4.00;;
50555;SDS011;36508;52.512;13.450;2023-08-07T13:04:50;4.30;;;2.70;;
50555;SDS011;36508;52.512;13.450;2023-08-07T13:07:16;5.47;;;2.53;;
50555;SDS011;36508;52.512;13.450;2023-08-07T13:09:42;5.20;;;3.10;;
50555;SDS011;36508;52.512;13.450;2023-08-07T13:12:07;6.80;;;3.70;;
50555;SDS011;36508;52.512;13.450;2023-08-07T13:14:33;5.63;;;2.90;;
50555;SDS011;36508;52.512;13.450;2023-08-07T13:16:59;5.17;;;2.87;;
50555;SDS011;36508;52.512;13.450;2023-08-07T13:19:24;6.07;;;2.67;;
50555;SDS011;36508;52.512;13.450;2023-08-07T13:21:50;6.13;;;3.63;;
50555;SDS011;36508;52.512;13.450;2023-08-07T13:24:15;7.50;;;2.47;;
50555;SDS011;36508;52.512;13.450;2023-08-07T13:26:41;9.97;;;4.20;;
50555;SDS011;36508;52.512;13.450;2023-08-07T13:29:13;4.83;;;2.30;;
50555;SDS011;36508;52.512;13.450;2023-08-07T13:31:39;6.30;;;3.20;;
50555;SDS011;36508;52.512;13.450;2023-08-07T13:34:06;2.80;;;1.60;;
50555;SDS011;36508;52.512;13.450;2023-08-07T13:36:36;3.60;;;2.90;;
50555;SDS011;36508;52.512;13.450;2023-08-07T13:39:03;2.50;;;2.23;;
50555;SDS011;36508;52.512;13.450;2023-08-07T13:41:32;3.83;;;1.93;;
50555;SDS011;36508;52.512;13.450;2023-08-07T13:44:00;4.90;;;3.10;;
50555;SDS011;36508;52.512;13.450;2023-08-07T13:46:26;4.90;;;2.80;;
50555;SDS011;36508;52.512;13.450;2023-08-07T13:48:52;3.53;;;2.03;;
50555;SDS011;36508;52.512;13.450;2023-08-07T13:51:19;4.43;;;2.60;;
50555;SDS011;36508;52.512;13.450;2023-08-07T13:53:45;5.87;;;2.17;;
50555;SDS011;36508;52.512;13.450;2023-08-07T13:56:10;5.00;;;2.60;;
50555;SDS011;36508;52.512;13.450;2023-08-07T13:58:38;1.87;;;1.77;;
50555;SDS011;36508;52.512;13.450;2023-08-07T14:01:04;3.37;;;2.40;;
50555;SDS011;36508;52.512;13.450;2023-08-07T14:03:30;3.77;;;2.17;;
50555;SDS011;36508;52.512;13.450;2023-08-07T14:05:55;2.80;;;2.60;;
50555;SDS011;36508;52.512;13.450;2023-08-07T14:08:21;3.57;;;2.63;;
50555;SDS011;36508;52.512;13.450;2023-08-07T14:10:47;4.50;;;2.30;;
50555;SDS011;36508;52.512;13.450;2023-08-07T14:13:12;5.33;;;3.10;;
50555;SDS011;36508;52.512;13.450;2023-08-07T14:15:38;7.17;;;2.93;;
50555;SDS011;36508;52.512;13.450;2023-08-07T14:18:04;5.37;;;3.03;;
50555;SDS011;36508;52.512;13.450;2023-08-07T14:20:29;8.53;;;3.53;;
50555;SDS011;36508;52.512;13.450;2023-08-07T14:22:55;4.00;;;2.70;;
50555;SDS011;36508;52.512;13.450;2023-08-07T14:25:20;5.33;;;3.70;;
50555;SDS011;36508;52.512;13.450;2023-08-07T14:27:47;4.50;;;3.10;;
50555;SDS011;36508;52.512;13.450;2023-08-07T14:30:13;11.40;;;5.10;;
50555;SDS011;36508;52.512;13.450;2023-08-07T14:32:38;12.10;;;9.67;;
50555;SDS011;36508;52.512;13.450;2023-08-07T14:35:04;3.90;;;2.33;;
50555;SDS011;36508;52.512;13.450;2023-08-07T14:37:30;4.50;;;2.80;;
50555;SDS011;36508;52.512;13.450;2023-08-07T14:39:56;6.40;;;4.77;;
50555;SDS011;36508;52.512;13.450;2023-08-07T14:42:23;6.33;;;3.53;;
50555;SDS011;36508;52.512;13.450;2023-08-07T14:44:49;8.43;;;2.83;;